Flight Track Log - Related Links

Times and Time Zones

All times are in EDT time to prevent confusion due to time zone crossing. See the EGF4603 flight status page for this flight to view local times or setup timezone preferences in your user account.

Time Position Orientation Groundspeed Altitude Reporting Facility
EDT Latitude Longitude Course Direction KTS MPH feet Rate Location/Type
Sat 05:03:52 PM 35.1972 -80.9381 72° East 181 208 1,400  Level Atlanta Center
Sat 05:05:00 PM 35.0927 -80.8594 141° Southeast  Level FlightAware Approximate
Sat 05:06:00 PM 35.1612 -80.5926 29° Northeast  Level FlightAware Approximate
Sat 05:06:00 PM 35.0922 -80.8353 141° Southeast 302 348 7,400  Level Atlanta Center
Sat 05:07:00 PM 35.2731 -80.5145 30° Northeast  Level FlightAware Approximate
Sat 05:07:03 PM 35.1022 -80.7358 83° East 309 356 8,000  Level Atlanta Center
Sat 05:08:00 PM 35.3481 -80.4107 72° East  Level FlightAware Approximate
Sat 05:08:03 PM 35.1267 -80.6411 72° East 325 374 10,100  Level Atlanta Center
Sat 05:09:00 PM 35.3877 -80.2604 72° East  Level FlightAware Approximate
Sat 05:09:03 PM 35.2044 -80.5819 32° Northeast 298 343 11,600  Level Atlanta Center
Sat 05:10:03 PM 35.2964 -80.5144 31° Northeast 353 406 13,600 2,106 Climbing Atlanta Center
Sat 05:12:11 PM 35.4069 -80.2275 65° Northeast 415 478 18,200 1,947 Climbing Washington Center
Sat 05:13:11 PM 35.4503 -80.0744 71° East 450 518 19,700 1,550 Climbing Washington Center
Sat 05:14:11 PM 35.4894 -79.9211 73° East 465 535 21,300 1,650 Climbing Washington Center
Sat 05:15:11 PM 35.5325 -79.7600 72° East 478 550 23,000 1,750 Climbing Washington Center
Sat 05:16:11 PM 35.5717 -79.5961 74° East 488 562 24,800 1,750 Climbing Washington Center
Sat 05:17:11 PM 35.6167 -79.4297 72° East 503 579 26,500 1,700 Climbing Washington Center
Sat 05:18:11 PM 35.6778 -79.2767 64° Northeast 503 579 28,200 1,500 Climbing Washington Center
Sat 05:19:11 PM 35.7408 -79.1236 63° Northeast 498 573 29,500 1,150 Climbing Washington Center
Sat 05:20:11 PM 35.8042 -78.9597 64° Northeast 503 579 30,500 1,000 Climbing Washington Center
Sat 05:21:11 PM 35.8731 -78.8014 62° Northeast 508 585 31,500 1,000 Climbing Washington Center
Sat 05:22:11 PM 35.9867 -78.6853 40° Northeast 519 597 32,500 750 Climbing Washington Center
Sat 05:23:11 PM 36.1106 -78.5794 35° Northeast 513 590 33,000 250 Climbing Washington Center
Sat 05:24:11 PM 36.2364 -78.4683 35° Northeast 536 617 33,000  Level Washington Center
Sat 05:25:11 PM 36.3600 -78.3569 36° Northeast 548 631 33,000  Level Washington Center
Sat 05:26:12 PM 36.4856 -78.2450 36° Northeast 553 636 33,000  Level Washington Center
Sat 05:27:11 PM 36.5942 -78.1478 36° Northeast 547 629 33,000  Level Washington Center
Sat 05:28:11 PM 36.7322 -78.0228 36° Northeast 547 629 33,000  Level Washington Center
Sat 05:29:11 PM 36.8536 -77.9072 37° Northeast 552 635 33,000  Level Washington Center
Sat 05:30:11 PM 36.9522 -77.7569 51° Northeast 540 621 33,000  Level Washington Center
Sat 05:31:11 PM 37.0428 -77.5981 54° Northeast 552 635 33,000  Level Washington Center
Sat 05:32:11 PM 37.1369 -77.4417 53° Northeast 557 641 33,000  Level Washington Center
Sat 05:33:11 PM 37.2289 -77.2872 53° Northeast 557 641 33,000  Level Washington Center
Sat 05:34:11 PM 37.3311 -77.1328 50° Northeast 569 655 33,000  Level Washington Center
Sat 05:35:11 PM 37.4556 -77.0203 36° Northeast 548 631 33,000  Level Washington Center
Sat 05:36:11 PM 37.5903 -76.9258 29° Northeast 556 640 33,000  Level Washington Center
Sat 05:37:11 PM 37.7228 -76.8258 31° Northeast 551 634 33,000  Level Washington Center
Sat 05:38:11 PM 37.8550 -76.7253 31° Northeast 546 628 33,000  Level Washington Center
Sat 05:39:11 PM 37.9853 -76.6297 30° Northeast 546 628 33,000  Level Washington Center
Sat 05:40:11 PM 38.1175 -76.5286 31° Northeast 546 628 33,000  Level Washington Center
Sat 05:41:11 PM 38.2494 -76.4300 30° Northeast 546 628 33,000  Level Washington Center
Sat 05:42:11 PM 38.3669 -76.3278 34° Northeast 551 634 33,000 -400 Level Washington Center
Sat 05:43:11 PM 38.4906 -76.2150 36° Northeast 551 634 32,200 -1,388 Descending Washington Center
Sat 05:44:12 PM 38.6331 -76.0833 36° Northeast 556 640 30,200 -1,850 Descending Washington Center
Sat 05:45:11 PM 38.7564 -75.9697 36° Northeast 556 640 28,500 -1,513 Descending Washington Center
Sat 05:46:11 PM 38.8817 -75.8531 36° Northeast 551 634 27,200 -750 Descending Washington Center
Sat 05:47:11 PM 39.0028 -75.7358 37° Northeast 551 634 27,000 -550 Descending Washington Center
Sat 05:48:11 PM 39.1239 -75.6211 36° Northeast 546 628 26,100 -950 Descending Washington Center
Sat 05:49:11 PM 39.2425 -75.5058 37° Northeast 546 628 25,100 -1,100 Descending Washington Center
Sat 05:50:11 PM 39.3633 -75.4036 33° Northeast 534 615 23,900 -1,700 Descending Washington Center
Sat 05:51:11 PM 39.4819 -75.2958 35° Northeast 529 609 21,700 -2,200 Descending Washington Center
Sat 05:52:11 PM 39.5961 -75.1903 35° Northeast 516 594 19,500 -2,050 Descending Washington Center
Sat 05:53:11 PM 39.6917 -75.1033 35° Northeast 485 558 17,600 -2,000 Descending Washington Center
Sat 05:54:11 PM 39.8058 -75.0056 33° Northeast 452 520 15,500 -1,800 Descending Washington Center
Sat 05:55:11 PM 39.8969 -74.9236 35° Northeast 436 502 14,000 -1,550 Descending Washington Center
Sat 05:56:11 PM 39.9839 -74.8117 45° Northeast 441 507 12,400 -1,828 Descending Washington Center
Sat 05:57:19 PM 40.0833 -74.6833 45° Northeast 416 479 10,100 -1,125 Descending New York TRACON
Sat 05:58:19 PM 40.1500 -74.5667 53° Northeast 403 464 10,000  Descending New York TRACON
Sat 05:59:13 PM 40.2333 -74.4667 42° Northeast 405 466 10,100 53 Climbing New York TRACON
Sat 06:00:13 PM 40.3000 -74.3667 49° Northeast 406 467 10,100 -48 Level New York TRACON
Sat 06:01:19 PM 40.3833 -74.2667 42° Northeast 367 422 10,000 -667 Descending New York TRACON
Sat 06:02:19 PM 40.4500 -74.1833 44° Northeast 312 359 8,700 -1,550 Descending New York TRACON
Sat 06:03:19 PM 40.5167 -74.1167 37° Northeast 286 329 6,900 -1,900 Descending New York TRACON
Sat 06:04:19 PM 40.5833 -74.0667 30° Northeast 273 314 4,900 -1,450 Descending New York TRACON
Sat 06:05:19 PM 40.6500 -74.0500 11° North 265 305 4,000 -600 Descending New York TRACON
Sat 06:06:19 PM 40.7333 -74.0167 17° North 264 304 3,700 -474 Descending New York TRACON
Sat 06:07:13 PM 40.8000 -74.0000 11° North 261 300 3,100 -316 Descending New York TRACON
Sat 06:08:13 PM 40.8500 -73.9333 45° Northeast 278 320 3,100  Level New York TRACON

Login

Don't have an account? Register now (free) for customized features, flight alerts, and more!